Latest Weather Observations for Redesdale

IDV60801

Issued at 11:02 pm EST Monday 31 August 2015 (issued every 30 minutes, with the page automatically refreshed every 10 minutes)

About weather observations | Map of weather stations | Latest weather observations for VIC | Other Formats
Station Details ID: 088051 Name: REDESDALE Lat: -37.02 Lon: 144.52 Height: 290.0 m
Data from the previous 72 hours. | See also: Recent months at Redesdale
Date/Time
EST
Temp
°C
App
Temp
°C
Dew
Point
Rel
Hum
%
Delta-T
°C
Wind Press
QNH
hPa
Press
MSL
hPa
Rain
since 9 am
mm
Dir
 
Spd
km/h
Gust
km/h
Spd
kts
Gust
kts
31/11:00pm 1.9 -2.1 0.4 90 0.6 SSW 11 13 6 7 - - 0.2
31/10:30pm 2.5 -1.8 0.7 88 0.7 SSW 13 13 7 7 - - 0.2
31/10:00pm 2.7 -1.7 0.6 86 0.8 SSW 13 15 7 8 - - 0.2
31/09:30pm 2.7 -1.7 0.6 86 0.8 S 13 15 7 8 - - 0.2
31/09:00pm 3.7 -0.6 1.1 83 1.0 S 13 15 7 8 - - 0.2
31/08:30pm 3.7 -0.6 1.3 84 0.9 S 13 15 7 8 - - 0.2
31/08:00pm 3.7 -0.2 0.9 82 1.1 S 11 13 6 7 - - 0.2
31/07:30pm 4.5 1.4 1.2 79 1.3 S 7 9 4 5 - - 0.2
31/07:00pm 5.4 1.6 1.5 76 1.6 SSE 11 17 6 9 - - 0.2
31/06:30pm 6.6 2.9 2.5 75 1.7 SSE 11 17 6 9 - - 0.2
31/06:00pm 8.4 4.7 2.4 66 2.6 SSE 11 17 6 9 - - 0.2
31/05:30pm 10.1 6.1 2.7 60 3.2 S 13 19 7 10 - - 0.2
31/05:00pm 11.3 6.9 2.9 56 3.7 S 15 22 8 12 - - 0.2
31/04:30pm 12.3 8.3 2.7 52 4.3 S 13 17 7 9 - - 0.2
31/04:00pm 12.5 8.4 2.4 50 4.5 SSE 13 19 7 10 - - 0.2
31/03:30pm 13.3 10.4 2.8 49 4.7 SW 7 15 4 8 - - 0.2
31/03:00pm 13.1 9.9 2.9 50 4.6 SSE 9 15 5 8 - - 0.2
31/02:30pm 12.9 9.7 3.0 51 4.5 SSW 9 17 5 9 - - 0.2
31/02:00pm 12.5 9.8 2.9 52 4.3 S 6 11 3 6 - - 0.2
31/01:30pm 12.7 10.1 3.4 53 4.2 SE 6 13 3 7 - - 0.2
31/01:00pm 11.9 9.0 2.6 53 4.1 SSW 7 13 4 7 - - 0.0
31/12:30pm 11.8 8.6 3.3 56 3.8 SSE 9 19 5 10 - - 0.0
31/12:00pm 11.2 7.5 2.5 55 3.8 S 11 17 6 9 - - 0.0
31/11:30am 10.4 6.7 2.3 57 3.5 SSW 11 19 6 10 - - 0.0
31/11:00am 9.5 6.2 2.6 62 3.0 SW 9 17 5 9 - - 0.0
31/10:30am 8.8 4.8 2.6 65 2.7 S 13 20 7 11 - - 0.0
31/10:00am 7.9 4.0 3.2 72 2.0 SSW 13 20 7 11 - - 0.0
31/09:30am 7.5 4.4 3.4 75 1.8 S 9 20 5 11 - - 0.0
31/09:00am 7.9 4.4 3.6 74 1.9 SE 11 15 6 8 - - 0.0
31/08:30am 6.8 4.2 4.1 83 1.2 S 7 13 4 7 - - 0.0
31/08:00am 5.4 2.0 4.1 91 0.6 S 11 19 6 10 - - 0.0
31/07:30am 2.6 -0.2 1.9 95 0.3 S 6 9 3 5 - - 0.0
31/07:00am 0.4 -2.4 -0.5 94 0.3 SSW 4 7 2 4 - - 0.0
31/06:30am 0.4 -3.0 -0.3 95 0.3 S 7 9 4 5 - - 0.0
31/06:00am 0.3 -3.4 -0.3 96 0.2 SSW 9 11 5 6 - - 0.0
31/05:30am -0.5 -3.4 -1.2 95 0.2 SW 4 6 2 3 - - 0.0
31/05:00am -0.8 -3.8 -1.5 95 0.2 SW 4 6 2 3 - - 0.0
31/04:30am -1.1 -4.5 -1.9 94 0.2 SW 6 6 3 3 - - 0.0
31/04:00am 0.4 -2.8 -0.5 94 0.3 SSE 6 6 3 3 - - 0.0
31/03:30am 0.5 -1.9 -0.6 92 0.4 S 2 4 1 2 - - 0.0
31/03:00am 1.8 -1.3 0.3 90 0.6 SSW 6 9 3 5 - - 0.0
31/02:30am 1.9 -1.1 0.6 91 0.5 SSW 6 7 3 4 - - 0.0
31/02:00am 1.6 -2.0 0.4 92 0.5 SSW 9 9 5 5 - - 0.0
31/01:30am 1.6 -2.0 0.3 91 0.5 SSW 9 11 5 6 - - 0.0
31/01:00am 1.6 -2.0 0.7 94 0.3 SSW 9 13 5 7 - - 0.0
31/12:30am 0.9 -2.4 0.3 96 0.2 SSW 7 9 4 5 - - 0.0
31/12:00am -0.5 -4.0 -1.2 95 0.2 SSW 7 9 4 5 - - 0.0
 
Date/Time
EST
Temp
°C
App
Temp
°C
Dew
Point
Rel
Hum
%
Delta-T
°C
Wind Press
QNH
hPa
Press
MSL
hPa
Rain
since 9 am
mm
Dir
 
Spd
km/h
Gust
km/h
Spd
kts
Gust
kts
30/11:30pm 0.4 - - - - S 11 11 6 6 - - 0.0
30/11:00pm 0.2 -3.0 -0.4 96 0.2 SSW 6 7 3 4 - - 0.0
30/10:30pm 0.7 - - - - SSW 7 7 4 4 - - 0.0
30/10:00pm 0.6 -2.6 -0.4 93 0.4 SSW 6 9 3 5 - - 0.0
30/09:30pm 1.0 - - - - SSW 6 7 3 4 - - 0.0
30/09:00pm 1.6 -1.7 0.1 90 0.6 SSW 7 9 4 5 - - 0.0
30/08:30pm 3.4 0.3 1.3 86 0.8 S 7 9 4 5 - - 0.0
30/08:00pm 3.4 0.2 1.0 84 0.9 S 7 9 4 5 - - 0.0
30/07:30pm 5.2 1.4 1.9 79 1.3 SSW 11 13 6 7 - - 0.0
30/07:00pm 6.7 1.9 2.8 76 1.6 S 17 22 9 12 - - 0.0
30/06:30pm 6.5 2.5 2.6 76 1.6 S 13 17 7 9 - - 0.0
30/06:00pm 7.9 3.1 2.8 70 2.2 S 17 20 9 11 - - 0.0
30/05:30pm 9.0 4.7 3.0 66 2.6 S 15 22 8 12 - - 0.0
30/05:00pm 10.1 4.8 2.9 61 3.2 S 20 30 11 16 - - 0.0
30/04:30pm 10.8 5.5 3.1 59 3.4 S 20 26 11 14 - - 0.0
30/04:00pm 11.3 5.7 3.3 58 3.6 S 22 30 12 16 - - 0.0
30/03:30pm 11.5 7.0 4.0 60 3.4 S 17 30 9 16 - - 0.0
30/03:00pm 11.5 6.3 3.3 57 3.7 S 20 28 11 15 - - 0.0
30/02:30pm 11.0 6.1 4.0 62 3.2 S 19 28 10 15 - - 0.0
30/02:00pm 11.0 6.5 4.0 62 3.2 SSE 17 24 9 13 - - 0.0
30/01:30pm 10.9 6.3 3.9 62 3.2 S 17 24 9 13 - - 0.0
30/01:00pm 11.2 6.4 4.4 63 3.1 S 19 28 10 15 - - 0.0
30/12:30pm 10.3 5.4 4.2 66 2.8 S 19 26 10 14 - - 0.0
30/12:00pm 10.1 5.0 4.0 66 2.7 S 20 28 11 15 - - 0.0
30/11:30am 10.0 5.2 4.4 68 2.5 S 19 26 10 14 - - 0.0
30/11:00am 9.9 4.8 4.1 67 2.6 S 20 28 11 15 - - 0.0
30/10:30am 9.7 4.3 4.3 69 2.4 S 22 28 12 15 - - 0.0
30/10:00am 9.3 3.0 3.9 69 2.4 S 26 35 14 19 - - 0.0
30/09:30am 8.9 3.8 3.9 71 2.2 S 20 28 11 15 - - 0.0
30/09:00am 8.5 - - - - S 20 32 11 17 - - 0.0
30/08:30am 8.1 - - - - S 9 17 5 9 - - 0.0
30/08:00am 7.7 - - - - S 17 26 9 14 - - 0.0
30/07:30am 7.3 3.1 3.9 79 1.5 SSW 15 24 8 13 - - 0.0
30/07:00am 6.8 4.2 4.1 83 1.2 SSW 7 11 4 6 - - 0.0
30/06:30am 6.6 3.2 4.1 84 1.1 SSW 11 17 6 9 - - 0.0
30/06:00am 6.7 - - - - SSW 9 13 5 7 - - 0.0
30/05:30am 6.7 3.3 4.0 83 1.2 SSW 11 17 6 9 - - 0.0
30/05:00am 5.6 3.0 3.1 84 1.1 SSW 6 9 3 5 - - 0.0
30/04:30am 5.9 2.5 4.2 89 0.7 SSW 11 15 6 8 - - 0.0
30/04:00am 5.8 2.3 3.5 85 1.0 SSW 11 15 6 8 - - 0.0
30/03:30am 6.5 - - - - SSW 11 17 6 9 - - 0.0
30/03:00am 6.5 3.0 3.7 82 1.2 SSW 11 17 6 9 - - 0.0
30/02:30am 6.5 3.0 3.5 81 1.3 SW 11 17 6 9 - - 0.0
30/02:00am 7.2 4.2 4.2 81 1.3 SSW 9 17 5 9 - - 0.0
30/01:30am 7.0 3.0 4.7 85 1.0 SSW 15 20 8 11 - - 0.0
30/01:00am 6.7 3.8 4.5 86 1.0 SW 9 13 5 7 - - 0.0
30/12:30am 6.3 3.7 4.1 86 1.0 SSW 7 11 4 6 - - 0.0
30/12:00am 7.2 4.7 4.7 84 1.1 S 7 13 4 7 - - 0.0
 
Date/Time
EST
Temp
°C
App
Temp
°C
Dew
Point
Rel
Hum
%
Delta-T
°C
Wind Press
QNH
hPa
Press
MSL
hPa
Rain
since 9 am
mm
Dir
 
Spd
km/h
Gust
km/h
Spd
kts
Gust
kts
29/11:30pm 7.7 4.9 5.2 84 1.1 SSW 9 19 5 10 - - 0.0
29/11:00pm 8.1 4.5 4.9 80 1.4 SSW 13 19 7 10 - - 0.0
29/10:30pm 8.4 4.3 4.4 76 1.8 SSW 15 20 8 11 - - 0.0
29/10:00pm 8.3 5.0 4.5 77 1.7 SSW 11 17 6 9 - - 0.0
29/09:30pm 8.2 4.9 4.8 79 1.5 SSW 11 19 6 10 - - 0.0
29/09:00pm 8.0 5.5 4.9 81 1.4 S 7 9 4 5 - - 0.0
29/08:30pm 8.4 5.6 5.0 79 1.5 SSW 9 15 5 8 - - 0.0
29/08:00pm 8.5 5.3 5.3 80 1.5 S 11 15 6 8 - - 0.0
29/07:30pm 8.7 6.2 4.9 77 1.7 SSW 7 11 4 6 - - 0.0
29/07:00pm 8.5 6.1 4.5 76 1.8 SW 6 7 3 4 - - 0.0
29/06:30pm 8.9 6.0 4.7 75 1.9 SSW 9 13 5 7 - - 0.0
29/06:00pm 9.1 6.2 4.5 73 2.1 SSW 9 15 5 8 - - 0.0
29/05:30pm 9.5 5.1 4.5 71 2.3 SSW 17 28 9 15 - - 0.0
29/05:00pm 9.7 5.7 4.9 72 2.2 SSW 15 22 8 12 - - 0.0
29/04:30pm 9.6 5.5 4.6 71 2.3 SSW 15 20 8 11 - - 0.0
29/04:00pm 9.7 5.3 4.5 70 2.4 S 17 24 9 13 - - 0.0
29/03:30pm 10.0 6.2 3.7 65 2.8 SSW 13 22 7 12 - - 0.0
29/03:00pm 10.4 4.9 3.9 64 2.9 S 22 30 12 16 - - 0.0
29/02:30pm 10.1 4.9 3.6 64 2.9 SSW 20 30 11 16 - - 0.0
29/02:00pm 10.1 5.1 3.6 64 2.9 SSW 19 30 10 16 - - 0.0
29/01:30pm 9.7 4.4 3.2 64 2.9 SSW 20 30 11 16 - - 0.0
29/01:00pm 9.8 5.2 3.5 65 2.8 SSW 17 24 9 13 - - 0.0
29/12:30pm 9.6 4.9 2.9 63 2.9 SSW 17 28 9 15 - - 0.0
29/12:00pm 9.1 4.0 3.1 66 2.6 SSW 19 26 10 14 - - 0.0
29/11:30am 9.1 3.7 2.4 63 2.9 SSW 20 30 11 16 - - 0.0
29/11:00am 9.7 3.9 2.1 59 3.3 SSW 22 35 12 19 - - 0.0
29/10:30am 8.2 2.6 1.1 61 2.9 SSW 20 28 11 15 - - 0.0
29/10:00am 9.5 4.0 1.9 59 3.2 S 20 28 11 15 - - 0.0
29/09:30am 8.3 - - - - S 26 33 14 18 - - 0.0
29/09:00am 7.2 - - - - S 15 26 8 14 - - 0.0
29/08:30am 5.8 - - - - SSW 9 15 5 8 - - 0.0
29/08:00am 4.1 - - - - SW 6 13 3 7 - - 0.0
29/07:30am 2.3 - - - - SW 4 6 2 3 - - 0.0
29/07:00am 1.8 - - - - SW 7 9 4 5 - - 0.0
29/06:30am 1.7 - - - - SSW 13 17 7 9 - - 0.0
29/06:00am 2.2 - - - - S 13 17 7 9 - - 0.0
29/05:30am 1.4 - - - - SW 6 9 3 5 - - 0.0
29/05:00am 1.2 - - - - SW 4 7 2 4 - - 0.0
29/04:30am 0.5 - - - - SSW 6 7 3 4 - - 0.0
29/04:00am 1.2 -2.2 -0.9 86 0.8 SW 7 9 4 5 - - 0.0
29/03:30am 1.7 - - - - SW 7 9 4 5 - - 0.0
29/03:00am 1.5 -2.3 -0.9 84 0.9 SW 9 15 5 8 - - 0.0
29/02:30am 0.0 - - - - SSW 7 11 4 6 - - 0.0
29/02:00am 1.2 - - - - SW 7 11 4 6 - - 0.0
29/01:30am 2.0 - - - - SW 13 17 7 9 - - 0.0
29/01:00am 1.7 - - - - SW 11 13 6 7 - - 0.0
29/12:30am 2.9 - - - - SSW 15 20 8 11 - - 0.0
29/12:00am 3.5 - - - - SSW 15 19 8 10 - - 0.0
 
Date/Time
EST
Temp
°C
App
Temp
°C
Dew
Point
Rel
Hum
%
Delta-T
°C
Wind Press
QNH
hPa
Press
MSL
hPa
Rain
since 9 am
mm
Dir
 
Spd
km/h
Gust
km/h
Spd
kts
Gust
kts
28/11:30pm 3.3 - - - - SSW 13 19 7 10 - - 0.0

Other Formats:

Comma delimited format used in spreadsheet applications
http://www.bom.gov.au/fwo/IDV60801/IDV60801.94859.axf

JavaScript Object Notation format (JSON) in row-major order
http://www.bom.gov.au/fwo/IDV60801/IDV60801.94859.json